createdAt,value
2018-05-14T00:01:40.933Z,12.94
2018-05-14T00:04:10.204Z,12.84
2018-05-14T00:06:40.218Z,13.04
2018-05-14T00:09:11.131Z,12.91
2018-05-14T00:11:42.028Z,12.87
2018-05-14T00:14:12.143Z,13.03
2018-05-14T00:16:42.888Z,13.04
2018-05-14T00:19:13.756Z,13.08
2018-05-14T00:21:44.451Z,13.07
2018-05-14T00:24:13.861Z,12.65
2018-05-14T00:26:44.549Z,12.89
2018-05-14T00:29:13.568Z,12.87
2018-05-14T00:31:44.506Z,12.75
2018-05-14T00:34:14.822Z,12.86
2018-05-14T00:36:44.236Z,12.82
2018-05-14T00:39:14.999Z,12.81
2018-05-14T00:41:44.493Z,12.85
2018-05-14T00:44:16.353Z,12.83
2018-05-14T00:46:46.656Z,12.77
2018-05-14T00:49:15.876Z,12.90
2018-05-14T00:51:47.159Z,12.76
2018-05-14T00:54:16.984Z,12.90
2018-05-14T00:56:48.471Z,13.08
2018-05-14T00:59:18.312Z,13.02
2018-05-14T01:01:49.953Z,12.88
2018-05-14T01:04:20.873Z,13.06
2018-05-14T01:06:52.860Z,12.98
2018-05-14T01:09:23.798Z,12.85
2018-05-14T01:11:53.275Z,12.85
2018-05-14T01:14:24.074Z,12.94
2018-05-14T01:16:53.339Z,13.10
2018-05-14T01:19:24.709Z,12.97
2018-05-14T01:21:53.868Z,13.02
2018-05-14T01:24:24.302Z,13.22
2018-05-14T01:26:53.658Z,12.95
2018-05-14T01:29:25.008Z,12.95
2018-05-14T01:31:55.580Z,12.91
2018-05-14T01:34:27.466Z,12.75
2018-05-14T01:36:56.747Z,12.92
2018-05-14T01:39:27.744Z,12.68
2018-05-14T01:41:57.155Z,12.87
2018-05-14T01:44:26.637Z,12.84
2018-05-14T01:46:55.816Z,12.83
2018-05-14T01:49:26.703Z,12.90
2018-05-14T01:51:55.736Z,12.66
2018-05-14T01:54:26.909Z,12.69
2018-05-14T01:56:57.549Z,12.88
2018-05-14T01:59:27.489Z,12.86
2018-05-14T02:01:57.336Z,12.57
2018-05-14T02:04:26.624Z,12.82
2018-05-14T02:06:55.788Z,12.87
2018-05-14T02:09:26.567Z,12.90
2018-05-14T02:11:56.505Z,12.91
2018-05-14T02:14:27.187Z,12.79
2018-05-14T02:16:56.831Z,12.65
2018-05-14T02:19:27.500Z,12.39
2018-05-14T02:21:56.639Z,12.73
2018-05-14T02:24:27.329Z,12.71
2018-05-14T02:26:56.471Z,12.49
2018-05-14T02:29:25.953Z,12.67
2018-05-14T02:31:56.514Z,12.61
2018-05-14T02:34:26.389Z,12.74
2018-05-14T02:36:55.339Z,12.79
2018-05-14T02:39:26.117Z,12.67
2018-05-14T02:41:56.945Z,12.68
2018-05-14T02:44:28.178Z,12.78
2018-05-14T02:46:58.816Z,12.62
2018-05-14T02:49:29.426Z,12.73
2018-05-14T02:51:58.950Z,12.45
2018-05-14T02:54:28.553Z,12.60
2018-05-14T02:56:59.973Z,12.55
2018-05-14T02:59:30.671Z,12.77
2018-05-14T03:02:01.433Z,12.62
2018-05-14T03:04:31.140Z,12.75
2018-05-14T03:07:02.331Z,12.73
2018-05-14T03:09:33.206Z,12.80
2018-05-14T03:12:03.505Z,12.86
2018-05-14T03:14:34.378Z,12.82
2018-05-14T03:17:05.760Z,12.78
2018-05-14T03:19:35.060Z,12.93
2018-05-14T03:22:05.691Z,12.78
2018-05-14T03:24:36.599Z,12.81
2018-05-14T03:27:06.536Z,12.76
2018-05-14T03:29:36.405Z,12.60
2018-05-14T03:32:05.844Z,12.78
2018-05-14T03:34:36.521Z,12.76
2018-05-14T03:37:05.381Z,12.79
2018-05-14T03:39:34.612Z,12.65
2018-05-14T03:42:03.554Z,12.70
2018-05-14T03:44:32.959Z,12.89
2018-05-14T03:47:04.437Z,12.96
2018-05-14T03:49:34.197Z,12.83
2018-05-14T03:52:04.148Z,12.85
2018-05-14T03:54:35.580Z,12.93
2018-05-14T03:57:06.892Z,12.95
2018-05-14T04:00:12.104Z,13.10
2018-05-14T04:03:27.293Z,13.10
2018-05-14T04:06:35.339Z,13.15
2018-05-14T04:09:05.400Z,13.04
2018-05-14T04:11:34.699Z,13.12
2018-05-14T04:14:03.672Z,13.17
2018-05-14T04:16:34.393Z,13.02
2018-05-14T04:19:04.936Z,13.19
2018-05-14T04:21:36.231Z,13.08
2018-05-14T04:24:05.375Z,13.25
2018-05-14T04:26:36.055Z,13.33
2018-05-14T04:29:06.410Z,13.11
2018-05-14T04:31:35.748Z,13.36
2018-05-14T04:34:06.133Z,13.28
2018-05-14T04:36:35.487Z,13.31
2018-05-14T04:39:04.352Z,13.36
2018-05-14T04:41:33.379Z,13.32
2018-05-14T04:44:03.252Z,13.19
2018-05-14T04:46:33.873Z,12.94
2018-05-14T04:49:04.510Z,12.84
2018-05-14T04:51:35.846Z,13.11
2018-05-14T04:54:06.790Z,12.94
2018-05-14T04:56:36.247Z,12.90
2018-05-14T04:59:06.928Z,13.05
2018-05-14T05:01:38.260Z,13.04
2018-05-14T05:04:07.874Z,13.16
2018-05-14T05:06:38.662Z,13.08
2018-05-14T05:09:09.593Z,13.02
2018-05-14T05:11:40.659Z,13.07
2018-05-14T05:14:10.488Z,13.17
2018-05-14T05:16:41.434Z,13.07
2018-05-14T05:19:12.311Z,13.05
2018-05-14T05:21:43.672Z,13.12
2018-05-14T05:24:13.535Z,13.37
2018-05-14T05:26:42.600Z,13.51
2018-05-14T05:29:12.427Z,13.32
2018-05-14T05:31:41.815Z,13.22
2018-05-14T05:34:12.517Z,13.27
2018-05-14T05:36:42.101Z,13.42
2018-05-14T05:39:12.014Z,13.63
2018-05-14T05:41:41.148Z,13.52
2018-05-14T05:44:10.513Z,13.39
2018-05-14T05:46:39.997Z,13.32
2018-05-14T05:49:09.890Z,13.28
2018-05-14T05:51:40.713Z,13.23
2018-05-14T05:54:09.781Z,13.25
2018-05-14T05:56:40.707Z,13.22
2018-05-14T05:59:10.040Z,13.25
2018-05-14T06:01:40.941Z,13.29
2018-05-14T06:04:10.946Z,13.37
2018-05-14T06:06:40.519Z,13.32
2018-05-14T06:09:09.973Z,13.33
2018-05-14T06:11:39.111Z,13.44
2018-05-14T06:14:09.874Z,13.44
2018-05-14T06:16:39.599Z,13.55
2018-05-14T06:19:09.550Z,13.51
2018-05-14T06:21:39.432Z,13.46
2018-05-14T06:24:10.042Z,13.40
2018-05-14T06:26:39.421Z,13.63
2018-05-14T06:29:09.129Z,13.84
2018-05-14T06:31:39.811Z,13.68
2018-05-14T06:34:10.726Z,13.68
2018-05-14T06:36:40.556Z,13.82
2018-05-14T06:39:11.811Z,13.95
2018-05-14T06:41:42.665Z,13.93
2018-05-14T06:44:13.636Z,13.85
2018-05-14T06:46:44.565Z,14.18
2018-05-14T06:49:13.883Z,14.17
2018-05-14T06:51:43.134Z,14.39
2018-05-14T06:54:13.085Z,14.31
2018-05-14T06:56:43.718Z,14.36
2018-05-14T06:59:14.568Z,14.60
2018-05-14T07:01:43.651Z,14.45
2018-05-14T07:04:13.987Z,14.59
2018-05-14T07:06:44.834Z,14.72
2018-05-14T07:09:15.737Z,14.62
2018-05-14T07:11:44.952Z,14.83
2018-05-14T07:14:24.219Z,14.80
2018-05-14T07:16:56.405Z,14.87
2018-05-14T07:19:27.412Z,14.98
2018-05-14T07:21:59.142Z,15.07
2018-05-14T07:24:30.226Z,15.07
2018-05-14T07:27:00.284Z,15.19
2018-05-14T07:29:31.105Z,15.25
2018-05-14T07:32:03.273Z,15.41
2018-05-14T07:34:32.344Z,15.29
2018-05-14T07:37:01.874Z,15.47
2018-05-14T07:39:32.554Z,15.65
2018-05-14T07:42:02.455Z,15.69
2018-05-14T07:44:33.334Z,16.02
2018-05-14T07:47:02.693Z,16.29
2018-05-14T07:49:33.610Z,16.39
2018-05-14T07:52:04.358Z,16.63
2018-05-14T07:54:33.850Z,16.80
2018-05-14T07:57:04.503Z,16.88
2018-05-14T07:59:35.625Z,16.81
2018-05-14T08:02:06.421Z,16.78
2018-05-14T08:04:35.656Z,17.25
2018-05-14T08:07:06.552Z,17.34
2018-05-14T08:09:35.969Z,17.54
2018-05-14T08:12:07.524Z,17.50
2018-05-14T08:14:36.604Z,17.46
2018-05-14T08:17:07.467Z,17.63
2018-05-14T08:19:36.911Z,17.82
2018-05-14T08:22:07.827Z,18.20
2018-05-14T08:24:39.132Z,19.22
2018-05-14T08:27:08.543Z,19.20
2018-05-14T08:29:39.472Z,19.92
2018-05-14T08:32:08.343Z,19.41
2018-05-14T08:34:39.250Z,19.16
2018-05-14T08:37:09.010Z,19.05
2018-05-14T08:39:38.531Z,19.52
2018-05-14T08:42:07.640Z,19.55
2018-05-14T08:44:38.213Z,19.66
2018-05-14T08:47:09.159Z,19.86
2018-05-14T08:49:39.134Z,20.17
2018-05-14T08:52:08.441Z,20.78
2018-05-14T08:54:39.323Z,20.67
2018-05-14T08:57:09.978Z,20.46
2018-05-14T08:59:39.957Z,21.83
2018-05-14T09:02:09.862Z,21.61
2018-05-14T09:04:39.467Z,22.60
2018-05-14T09:07:09.542Z,23.19
2018-05-14T09:09:39.886Z,23.53
2018-05-14T09:12:10.518Z,23.57
2018-05-14T09:14:41.632Z,23.40
2018-05-14T09:17:11.008Z,23.77
2018-05-14T09:19:40.189Z,23.50
2018-05-14T09:22:10.827Z,23.46
2018-05-14T09:24:42.083Z,23.32
2018-05-14T09:27:13.408Z,23.40
2018-05-14T09:29:44.198Z,23.12
2018-05-14T09:32:15.061Z,23.35
2018-05-14T09:34:45.827Z,23.46
2018-05-14T09:37:14.878Z,23.50
2018-05-14T09:39:46.278Z,23.78
2018-05-14T09:42:17.745Z,24.11
2018-05-14T09:44:47.800Z,23.61
2018-05-14T09:47:18.563Z,23.76
2018-05-14T09:49:49.889Z,23.75
2018-05-14T09:52:21.332Z,23.80
2018-05-14T09:54:52.348Z,23.68
2018-05-14T09:57:21.858Z,23.87
2018-05-14T09:59:51.307Z,24.07
2018-05-14T10:02:22.238Z,24.03
2018-05-14T10:04:53.204Z,24.18
2018-05-14T10:07:23.937Z,24.52
2018-05-14T10:09:55.140Z,24.17
2018-05-14T10:12:26.132Z,24.04
2018-05-14T10:14:55.872Z,24.13
2018-05-14T10:17:27.000Z,24.62
2018-05-14T10:19:57.764Z,24.58
2018-05-14T10:22:28.776Z,24.72
2018-05-14T10:24:58.770Z,24.43
2018-05-14T10:27:29.192Z,24.44
2018-05-14T10:30:00.373Z,24.39
2018-05-14T10:32:30.452Z,24.37
2018-05-14T10:35:01.466Z,24.53
2018-05-14T10:37:33.355Z,24.59
2018-05-14T10:40:04.304Z,24.69
2018-05-14T10:42:35.258Z,24.87
2018-05-14T10:45:04.851Z,25.32
2018-05-14T10:47:36.189Z,24.28
2018-05-14T10:50:05.568Z,25.09
2018-05-14T10:52:35.515Z,25.31
2018-05-14T10:55:06.728Z,25.10
2018-05-14T10:57:36.080Z,24.89
2018-05-14T11:00:06.920Z,24.96
2018-05-14T11:02:38.437Z,25.08
2018-05-14T11:05:09.373Z,25.04
2018-05-14T11:07:40.413Z,24.79
2018-05-14T11:10:11.248Z,24.66
2018-05-14T11:12:42.227Z,24.90
2018-05-14T11:15:13.174Z,25.34
2018-05-14T11:17:42.513Z,25.12
2018-05-14T11:20:12.154Z,25.25
2018-05-14T11:22:45.756Z,25.52
2018-05-14T11:25:15.689Z,25.60
2018-05-14T11:27:45.637Z,25.98
2018-05-14T11:30:16.861Z,25.77
2018-05-14T11:32:46.616Z,25.81
2018-05-14T11:35:17.471Z,25.81
2018-05-14T11:37:47.268Z,25.80
2018-05-14T11:40:16.646Z,25.66
2018-05-14T11:42:47.304Z,25.63
2018-05-14T11:45:18.211Z,25.53
2018-05-14T11:47:49.218Z,25.68
2018-05-14T11:50:18.322Z,25.26
2018-05-14T11:52:49.212Z,25.37
2018-05-14T11:55:18.742Z,25.48
2018-05-14T11:57:48.070Z,25.70
2018-05-14T12:00:17.446Z,25.82
2018-05-14T12:02:47.128Z,25.70
2018-05-14T12:05:16.204Z,25.88
2018-05-14T12:07:46.493Z,25.76
2018-05-14T12:10:16.098Z,25.77
2018-05-14T12:12:45.263Z,26.06
2018-05-14T12:15:15.916Z,26.20
2018-05-14T12:17:46.982Z,26.11
2018-05-14T12:20:19.814Z,26.23
2018-05-14T12:22:50.656Z,26.08
2018-05-14T12:25:21.335Z,26.32
2018-05-14T12:27:51.206Z,26.69
2018-05-14T12:30:22.273Z,26.14
2018-05-14T12:32:51.888Z,26.40
2018-05-14T12:35:21.253Z,26.57
2018-05-14T12:37:52.392Z,26.60
2018-05-14T12:40:22.855Z,26.44
2018-05-14T12:42:52.174Z,26.38
2018-05-14T12:45:23.186Z,26.63
2018-05-14T12:47:54.234Z,26.70
2018-05-14T12:50:23.357Z,26.74
2018-05-14T12:52:54.744Z,26.62
2018-05-14T12:55:23.951Z,26.83
2018-05-14T12:57:53.066Z,27.03
2018-05-14T13:00:23.923Z,27.08
2018-05-14T13:02:53.818Z,26.77
2018-05-14T13:05:25.972Z,26.91
2018-05-14T13:07:55.881Z,27.22
2018-05-14T13:10:27.320Z,27.33
2018-05-14T13:12:57.981Z,27.42
2018-05-14T13:15:29.613Z,27.23
2018-05-14T13:18:01.388Z,27.11
2018-05-14T13:20:32.810Z,27.08
2018-05-14T13:23:02.743Z,27.04
2018-05-14T13:25:34.174Z,27.24
2018-05-14T13:28:05.631Z,27.29
2018-05-14T13:30:35.541Z,27.38
2018-05-14T13:33:06.991Z,27.43
2018-05-14T13:35:37.441Z,27.09
2018-05-14T13:38:08.874Z,27.12
2018-05-14T13:40:38.806Z,27.28
2018-05-14T13:43:09.333Z,27.47
2018-05-14T13:45:41.292Z,27.55
2018-05-14T13:48:11.086Z,27.62
2018-05-14T13:50:40.702Z,27.53
2018-05-14T13:53:12.409Z,27.53
2018-05-14T13:55:43.509Z,27.24
2018-05-14T13:58:14.932Z,27.44
2018-05-14T14:00:44.577Z,27.40
2018-05-14T14:03:14.793Z,27.28
2018-05-14T14:05:46.178Z,27.40
2018-05-14T14:08:17.926Z,27.34
2018-05-14T14:10:47.715Z,27.09
2018-05-14T14:13:19.150Z,27.30
2018-05-14T14:15:48.969Z,27.24
2018-05-14T14:18:18.800Z,27.38
2018-05-14T14:20:48.578Z,27.32
2018-05-14T14:23:18.969Z,27.37
2018-05-14T14:25:47.857Z,27.10
2018-05-14T14:28:17.120Z,27.41
2018-05-14T14:30:46.909Z,27.45
2018-05-14T14:33:18.689Z,27.40
2018-05-14T14:35:50.187Z,27.28
2018-05-14T14:38:20.034Z,27.14
2018-05-14T14:40:49.565Z,27.32
2018-05-14T14:43:20.190Z,27.21
2018-05-14T14:45:49.239Z,27.31
2018-05-14T14:48:18.990Z,27.21
2018-05-14T14:50:50.251Z,27.31
2018-05-14T14:53:21.530Z,27.28
2018-05-14T14:55:51.280Z,27.29
2018-05-14T14:58:22.937Z,27.31
2018-05-14T15:00:52.650Z,27.40
2018-05-14T15:03:22.481Z,27.30
2018-05-14T15:05:53.824Z,27.29
2018-05-14T15:08:23.715Z,27.31
2018-05-14T15:10:54.164Z,27.34
2018-05-14T15:13:23.677Z,27.35
2018-05-14T15:15:52.776Z,27.19
2018-05-14T15:18:24.244Z,27.24
2018-05-14T15:20:55.328Z,27.24
2018-05-14T15:23:25.316Z,27.36
2018-05-14T15:25:56.673Z,27.36
2018-05-14T15:28:26.527Z,27.33
2018-05-14T15:30:58.059Z,27.22
2018-05-14T15:33:29.529Z,27.30
2018-05-14T15:35:58.585Z,27.26
2018-05-14T15:38:30.728Z,27.22
2018-05-14T15:41:02.575Z,27.30
2018-05-14T15:43:32.463Z,27.21
2018-05-14T15:46:04.057Z,27.29
2018-05-14T15:48:35.410Z,27.38
2018-05-14T15:51:06.733Z,27.32
2018-05-14T15:53:36.724Z,27.40
2018-05-14T15:56:07.464Z,27.56
2018-05-14T15:58:38.627Z,27.37
2018-05-14T16:01:09.945Z,27.36
2018-05-14T16:03:39.779Z,27.51
2018-05-14T16:06:09.692Z,27.30
2018-05-14T16:08:41.721Z,27.30
2018-05-14T16:11:12.991Z,27.33
2018-05-14T16:13:44.338Z,27.26
2018-05-14T16:16:14.245Z,27.29
2018-05-14T16:18:44.086Z,27.48
2018-05-14T16:21:15.457Z,27.31
2018-05-14T16:23:46.856Z,27.30
2018-05-14T16:26:18.239Z,27.36
2018-05-14T16:28:48.041Z,27.34
2018-05-14T16:31:17.960Z,27.37
2018-05-14T16:33:49.220Z,27.36
2018-05-14T16:36:20.603Z,27.30
2018-05-14T16:38:52.201Z,27.27
2018-05-14T16:41:23.632Z,27.23
2018-05-14T16:43:54.898Z,27.24
2018-05-14T16:46:24.812Z,27.18
2018-05-14T16:48:56.243Z,27.18
2018-05-14T16:51:27.342Z,27.15
2018-05-14T16:53:57.222Z,27.09
2018-05-14T16:56:27.119Z,27.03
2018-05-14T16:58:56.980Z,27.02
2018-05-14T17:01:28.501Z,26.95
2018-05-14T17:03:59.224Z,26.88
2018-05-14T17:06:29.022Z,26.84
2018-05-14T17:09:00.781Z,26.83
2018-05-14T17:11:31.103Z,26.80
2018-05-14T17:14:02.395Z,26.73
2018-05-14T17:16:33.762Z,26.64
2018-05-14T17:19:05.146Z,26.73
2018-05-14T17:21:37.044Z,26.64
2018-05-14T17:24:08.449Z,26.65
2018-05-14T17:26:39.255Z,26.62
2018-05-14T17:29:11.618Z,26.64
2018-05-14T17:31:42.967Z,26.54
2018-05-14T17:34:14.401Z,26.57
2018-05-14T17:36:45.889Z,26.51
2018-05-14T17:39:15.756Z,26.46
2018-05-14T17:41:45.643Z,26.48
2018-05-14T17:44:15.694Z,26.40
2018-05-14T17:46:46.298Z,26.30
2018-05-14T17:49:15.598Z,26.23
2018-05-14T17:51:46.891Z,26.20
2018-05-14T17:54:16.882Z,26.14
2018-05-14T17:56:48.251Z,26.06
2018-05-14T17:59:20.591Z,26.02
2018-05-14T18:01:50.501Z,26.02
2018-05-14T18:04:21.900Z,25.88
2018-05-14T18:06:51.738Z,25.81
2018-05-14T18:09:21.792Z,25.72
2018-05-14T18:11:53.217Z,25.59
2018-05-14T18:14:25.156Z,25.56
2018-05-14T18:16:54.713Z,25.46
2018-05-14T18:19:25.959Z,25.33
2018-05-14T18:22:15.055Z,25.27
2018-05-14T18:24:53.336Z,25.22
2018-05-14T18:27:34.716Z,25.16
2018-05-14T18:30:14.357Z,25.10
2018-05-14T18:32:55.545Z,24.98
2018-05-14T18:35:27.657Z,24.84
2018-05-14T18:37:59.129Z,24.76
2018-05-14T18:40:30.511Z,24.65
2018-05-14T18:43:00.517Z,24.68
2018-05-14T18:45:30.838Z,24.76
2018-05-14T18:48:00.643Z,24.58
2018-05-14T18:50:31.462Z,24.58
2018-05-14T18:53:01.388Z,24.46
2018-05-14T18:55:33.381Z,24.31
2018-05-14T18:58:04.808Z,24.23
2018-05-14T19:00:35.946Z,24.10
2018-05-14T19:03:05.557Z,24.05
2018-05-14T19:05:35.486Z,23.92
2018-05-14T19:08:07.656Z,23.79
2018-05-14T19:10:56.490Z,23.71
2018-05-14T19:13:27.751Z,23.64
2018-05-14T19:16:25.502Z,23.49
2018-05-14T19:18:56.662Z,23.35
2018-05-14T19:21:26.489Z,23.26
2018-05-14T19:23:57.663Z,23.16
2018-05-14T19:26:27.527Z,23.13
2018-05-14T19:29:14.546Z,22.92
2018-05-14T19:31:46.226Z,22.95
2018-05-14T19:34:34.965Z,22.92
2018-05-14T19:37:04.780Z,22.71
2018-05-14T19:39:53.511Z,22.73
2018-05-14T19:42:23.476Z,22.69
2018-05-14T19:44:54.904Z,22.74
2018-05-14T19:47:25.537Z,22.75
2018-05-14T19:49:57.002Z,22.67
2018-05-14T19:52:26.589Z,22.67
2018-05-14T19:54:55.756Z,22.66
2018-05-14T19:57:25.674Z,22.50
2018-05-14T19:59:57.026Z,22.38
2018-05-14T20:02:26.965Z,22.27
2018-05-14T20:04:57.468Z,22.32
2018-05-14T20:07:28.736Z,22.30
2018-05-14T20:09:59.175Z,22.19
2018-05-14T20:12:30.157Z,22.02
2018-05-14T20:15:01.568Z,21.99
2018-05-14T20:17:31.451Z,22.06
2018-05-14T20:20:02.806Z,21.95
2018-05-14T20:22:34.232Z,21.90
2018-05-14T20:25:04.247Z,21.74
2018-05-14T20:27:34.721Z,21.67
2018-05-14T20:30:04.319Z,21.71
2018-05-14T20:32:35.817Z,21.62
2018-05-14T20:35:05.688Z,21.51
2018-05-14T20:37:36.275Z,21.53
2018-05-14T20:40:07.732Z,21.43
2018-05-14T20:42:37.373Z,21.41
2018-05-14T20:45:09.160Z,21.36
2018-05-14T20:47:38.921Z,21.24
2018-05-14T20:50:08.326Z,21.28
2018-05-14T20:52:39.891Z,21.27
2018-05-14T20:55:09.815Z,21.37
2018-05-14T20:57:39.535Z,21.25
2018-05-14T21:00:11.064Z,21.25
2018-05-14T21:02:41.097Z,21.21
2018-05-14T21:05:11.016Z,21.10
2018-05-14T21:07:41.012Z,21.14
2018-05-14T21:10:12.947Z,21.16
2018-05-14T21:12:43.014Z,20.99
2018-05-14T21:15:14.555Z,21.03
2018-05-14T21:17:44.986Z,20.96
2018-05-14T21:20:14.343Z,20.90
2018-05-14T21:22:45.757Z,20.88
2018-05-14T21:25:16.472Z,20.84
2018-05-14T21:27:47.127Z,20.71
2018-05-14T21:30:18.541Z,20.74
2018-05-14T21:32:49.964Z,20.71
2018-05-14T21:35:21.448Z,20.71
2018-05-14T21:37:50.776Z,20.76
2018-05-14T21:40:21.260Z,20.64
2018-05-14T21:42:52.696Z,20.61
2018-05-14T21:45:22.621Z,20.71
2018-05-14T21:47:52.551Z,20.65
2018-05-14T21:50:24.037Z,20.52
2018-05-14T21:52:54.552Z,20.41
2018-05-14T21:55:25.885Z,20.50
2018-05-14T21:57:57.329Z,20.48
2018-05-14T22:00:27.286Z,20.60
2018-05-14T22:02:58.802Z,20.56
2018-05-14T22:05:29.240Z,20.43
2018-05-14T22:07:59.130Z,20.49
2018-05-14T22:10:29.045Z,20.46
2018-05-14T22:13:00.545Z,20.42
2018-05-14T22:15:30.429Z,20.47
2018-05-14T22:18:01.814Z,20.47
2018-05-14T22:20:31.724Z,20.42
2018-05-14T22:23:01.594Z,20.33
2018-05-14T22:25:32.729Z,20.29
2018-05-14T22:28:02.771Z,20.45
2018-05-14T22:30:33.219Z,20.45
2018-05-14T22:33:04.081Z,20.19
2018-05-14T22:35:33.162Z,20.34
2018-05-14T22:38:03.021Z,20.34
2018-05-14T22:40:34.547Z,20.30
2018-05-14T22:43:06.339Z,20.24
2018-05-14T22:45:36.975Z,20.18
2018-05-14T22:48:08.410Z,20.19
2018-05-14T22:50:40.685Z,20.21
2018-05-14T22:53:12.162Z,20.20
2018-05-14T22:55:43.644Z,20.18
2018-05-14T22:58:15.047Z,20.20
2018-05-14T23:00:45.065Z,20.40
2018-05-14T23:03:14.962Z,20.45
2018-05-14T23:05:46.597Z,20.38
2018-05-14T23:08:18.064Z,20.38
2018-05-14T23:10:47.977Z,20.38
2018-05-14T23:13:18.410Z,20.35
2018-05-14T23:15:48.356Z,20.27
2018-05-14T23:18:18.253Z,20.27
2018-05-14T23:20:48.574Z,20.22
2018-05-14T23:23:20.022Z,20.17
2018-05-14T23:25:50.680Z,20.15
2018-05-14T23:28:22.354Z,20.11
2018-05-14T23:30:51.444Z,20.10
2018-05-14T23:33:22.865Z,20.03
2018-05-14T23:35:54.273Z,20.07
2018-05-14T23:38:25.583Z,20.05
2018-05-14T23:40:55.672Z,19.92
2018-05-14T23:43:27.084Z,19.87
2018-05-14T23:45:58.418Z,19.85
2018-05-14T23:48:29.055Z,19.77
2018-05-14T23:50:59.922Z,19.76
2018-05-14T23:53:30.900Z,19.65
2018-05-14T23:56:02.896Z,19.62
2018-05-14T23:58:34.029Z,19.52
